Thursday, March 23, 2017, 12:24 AM EDT

KNHK, Nas Patuxent River Md

Location: Patuxent River, MD, United States Lat: 38.3
Local Time: 12:24 AM EDT ( 4:24 GMT) Lon: -76.4
Time Zone: US/Eastern Elev: 39 ft

Show me the last for .
Show Decoded

2017-03-22 23:52 METAR KNHK 230352Z AUTO 05011KT 10SM CLR 01/M09 A3047 RMK AO2 SLP317 T00111094 $
                 =
2017-03-22 22:52 METAR KNHK 230252Z 03010KT 10SM CLR 04/M11 A3045 RMK AO2 SLP312 T00391106 51034
                 $ =
2017-03-22 21:52 METAR KNHK 230152Z 35012KT 10SM CLR 04/M12 A3043 RMK AO2 SLP304 T00441117 $ =
2017-03-22 20:52 METAR KNHK 230052Z 35011KT 10SM CLR 05/M11 A3040 RMK AO2 SLP293 T00501111 $ =
2017-03-22 19:52 METAR KNHK 222352Z 34013KT 10SM CLR 06/M12 A3035 RMK AO2 SLP278 T00561117 10100
                 20056 53030 $ =
2017-03-22 18:52 METAR KNHK 222252Z 33019KT 10SM CLR 07/M11 A3032 RMK AO2 SLP268 T00721106 $ =
2017-03-22 17:52 METAR KNHK 222152Z 02016KT 10SM CLR 07/M06 A3029 RMK AO2 SLP256 T00721061 $ =
2017-03-22 16:52 METAR KNHK 222052Z 36016G22KT 10SM CLR 08/M06 A3027 RMK AO2 PK WND 33027/2003
                 SLP248 T00781061 53012 $ =
2017-03-22 15:52 METAR KNHK 221952Z 36015KT 10SM CLR 09/M07 A3024 RMK AO2 PK WND 32028/1916
                 SLP241 T00941072 $ =
2017-03-22 14:52 METAR KNHK 221852Z 32018KT 10SM FEW050 FEW250 09/M07 A3024 RMK AO2 SLP238
                 T00891067 $ =
2017-03-22 13:52 METAR KNHK 221752Z 33021G29KT 10SM FEW120 09/M07 A3023 RMK AO2 PK WND 33029/1743
                 SLP237 T00941072 10094 20072 51017 $ =
2017-03-22 12:52 METAR KNHK 221652Z 32019G25KT 10SM FEW120 09/M04 A3022 RMK AO2 PK WND 33028/1604
                 SLP234 T00891044 =
2017-03-22 11:52 METAR KNHK 221552Z 33021G27KT 10SM FEW050 08/M06 A3020 RMK AO2 PK WND 33029/1513
                 SLP228 T00781056 =
2017-03-22 10:52 METAR KNHK 221452Z 33022G30KT 10SM FEW050 08/M04 A3018 RMK AO2 PK WND 33030/1443
                 SLP220 T00781044 51051 =
2017-03-22 09:52 METAR KNHK 221352Z 33020G29KT 10SM FEW060 08/M02 A3014 RMK AO2 PK WND 32032/1305
                 SLP205 T00781017 =
2017-03-22 08:52 METAR KNHK 221252Z 32022G31KT 10SM FEW080 08/M02 A3009 RMK AO2 PK WND 33034/1232
                 SLP190 T00781017 =
2017-03-22 07:52 METAR KNHK 221152Z 34024G33KT 10SM FEW050 FEW120 09/M01 A3003 RMK AO2 PK WND
                 33033/1152 SLP170 60000 T00891011 10117 20078 53035 =
2017-03-22 06:52 METAR KNHK 221052Z 35013KT 10SM BKN070 BKN120 11/02 A2999 RMK AO2 SLP154
                 T01060017 =
2017-03-22 05:52 METAR KNHK 220952Z 35004KT 10SM BKN060 OVC110 10/08 A2996 RMK AO2 RAE0859 SLP144
                 P0000 T01000083 =
2017-03-22 04:52 METAR KNHK 220852Z AUTO 32007KT 10SM -RA OVC065 11/08 A2993 RMK AO2 RAB0754
                 SLP134 P0000 60000 T01060078 53005 =
2017-03-22 03:52 METAR KNHK 220752Z AUTO 32007KT 10SM BKN075 OVC090 11/07 A2992 RMK AO2 RAB42E52
                 SLP131 P0000 T01060067 =
2017-03-22 02:52 METAR KNHK 220652Z AUTO 32008KT 10SM FEW070 OVC085 11/06 A2990 RMK AO2 SLP124
                 T01060061 =
2017-03-22 01:52 METAR KNHK 220552Z AUTO 29004KT 10SM SCT100 08/07 A2991 RMK AO2 SLP130 T00830067
                 10106 20061 56017 =
2017-03-22 00:52 METAR KNHK 220452Z AUTO 23005KT 10SM OVC100 09/07 A2993 RMK AO2 SLP135 T00940072
                 401330061 =

Support USWX by starting your Amazon purchase here.